EIN63J EIDW-EBBR
Flight info
| Callsign | EIN63J |
|---|---|
| Flight time | 1h 15m |
| Altitude | 37000 |
| Route | DEXEN2J DEXEN UY124 AMPIT L15 BIG UL9 DVR/N0423F230 L18 VABIK Q70 KOK |
| Aircraft | A320/M-SDE3FGHIRWY/LB1 |
Departure
| Time | 2026-05-07 11:06 |
|---|---|
| Airport | Dublin Airport (EIDW) |
Arrival
| Time | 2026-05-07 12:22 |
|---|---|
| Airport | Brussels Airport (EBBR) |
| Time | Latitude | Longitude | Altitude | Speed | Heading |
|---|---|---|---|---|---|
| 2026-05-07 10:35 | 53.42322 | -6.24258 | 217 ft | 0 kts | 316° |
| 2026-05-07 10:52 | 53.42322 | -6.24259 | 211 ft | 0 kts | 316° |
| 2026-05-07 10:53 | 53.42311 | -6.24241 | 211 ft | 2 kts | 316° |
| 2026-05-07 10:53 | 53.42299 | -6.24222 | 211 ft | 2 kts | 316° |
| 2026-05-07 10:53 | 53.42287 | -6.24202 | 211 ft | 2 kts | 310° |
| 2026-05-07 10:54 | 53.42280 | -6.24177 | 217 ft | 2 kts | 281° |
| 2026-05-07 10:54 | 53.42277 | -6.24152 | 212 ft | 0 kts | 274° |
| 2026-05-07 10:55 | 53.42276 | -6.24174 | 212 ft | 4 kts | 265° |
| 2026-05-07 10:55 | 53.42251 | -6.24196 | 211 ft | 4 kts | 200° |
| 2026-05-07 10:55 | 53.42226 | -6.24212 | 211 ft | 4 kts | 203° |
| 2026-05-07 10:56 | 53.42204 | -6.24229 | 211 ft | 3 kts | 205° |
| 2026-05-07 10:56 | 53.42193 | -6.24252 | 211 ft | 2 kts | 242° |
| 2026-05-07 10:56 | 53.42184 | -6.24281 | 211 ft | 6 kts | 242° |
| 2026-05-07 10:56 | 53.42167 | -6.24410 | 216 ft | 16 kts | 268° |
| 2026-05-07 10:57 | 53.42174 | -6.24607 | 211 ft | 17 kts | 275° |
| 2026-05-07 10:57 | 53.42226 | -6.24765 | 214 ft | 16 kts | 333° |
| 2026-05-07 10:57 | 53.42323 | -6.24833 | 211 ft | 15 kts | 336° |
| 2026-05-07 10:57 | 53.42412 | -6.24897 | 214 ft | 14 kts | 336° |
| 2026-05-07 10:58 | 53.42496 | -6.24958 | 211 ft | 13 kts | 336° |
| 2026-05-07 10:58 | 53.42581 | -6.25020 | 211 ft | 15 kts | 336° |
| 2026-05-07 10:58 | 53.42678 | -6.25089 | 215 ft | 15 kts | 333° |
| 2026-05-07 10:58 | 53.42744 | -6.25206 | 211 ft | 13 kts | 322° |
| 2026-05-07 10:59 | 53.42826 | -6.25266 | 211 ft | 12 kts | 336° |
| 2026-05-07 10:59 | 53.42901 | -6.25322 | 215 ft | 12 kts | 336° |
| 2026-05-07 10:59 | 53.42992 | -6.25386 | 213 ft | 16 kts | 337° |
| 2026-05-07 10:59 | 53.43109 | -6.25476 | 213 ft | 20 kts | 336° |
| 2026-05-07 11:00 | 53.43250 | -6.25575 | 211 ft | 23 kts | 337° |
| 2026-05-07 11:00 | 53.43339 | -6.25639 | 211 ft | 15 kts | 336° |
| 2026-05-07 11:00 | 53.43409 | -6.25578 | 211 ft | 13 kts | 88° |
| 2026-05-07 11:00 | 53.43399 | -6.25430 | 216 ft | 13 kts | 97° |
| 2026-05-07 11:01 | 53.43392 | -6.25285 | 217 ft | 13 kts | 93° |
| 2026-05-07 11:01 | 53.43384 | -6.25137 | 216 ft | 13 kts | 95° |
| 2026-05-07 11:01 | 53.43375 | -6.24980 | 215 ft | 14 kts | 95° |
| 2026-05-07 11:01 | 53.43364 | -6.24783 | 218 ft | 21 kts | 95° |
| 2026-05-07 11:02 | 53.43375 | -6.24576 | 217 ft | 16 kts | 45° |
| 2026-05-07 11:02 | 53.43449 | -6.24550 | 212 ft | 0 kts | 3° |
| 2026-05-07 11:02 | 53.43477 | -6.24545 | 217 ft | 12 kts | 7° |
| 2026-05-07 11:02 | 53.43510 | -6.24332 | 215 ft | 24 kts | 85° |
| 2026-05-07 11:03 | 53.43494 | -6.24063 | 210 ft | 20 kts | 96° |
| 2026-05-07 11:03 | 53.43444 | -6.23852 | 214 ft | 20 kts | 163° |
| 2026-05-07 11:03 | 53.43357 | -6.23871 | 211 ft | 11 kts | 197° |
| 2026-05-07 11:03 | 53.43321 | -6.23908 | 211 ft | 0 kts | 263° |
| 2026-05-07 11:04 | 53.43322 | -6.23944 | 213 ft | 17 kts | 274° |
| 2026-05-07 11:04 | 53.43337 | -6.24224 | 211 ft | 21 kts | 274° |
| 2026-05-07 11:04 | 53.43343 | -6.24390 | 214 ft | 22 kts | 276° |
| 2026-05-07 11:05 | 53.43393 | -6.24557 | 213 ft | 16 kts | 346° |
| 2026-05-07 11:05 | 53.43489 | -6.24550 | 219 ft | 12 kts | 354° |
| 2026-05-07 11:05 | 53.43528 | -6.24642 | 218 ft | 10 kts | 274° |
| 2026-05-07 11:05 | 53.43541 | -6.24877 | 213 ft | 50 kts | 275° |
| 2026-05-07 11:06 | 53.43595 | -6.25896 | 211 ft | 121 kts | 275° |
| 2026-05-07 11:06 | 53.43683 | -6.27621 | 248 ft | 170 kts | 273° |
| 2026-05-07 11:06 | 53.43806 | -6.29589 | 934 ft | 168 kts | 285° |
| 2026-05-07 11:06 | 53.44494 | -6.31119 | 1715 ft | 169 kts | 325° |
| 2026-05-07 11:07 | 53.45433 | -6.32383 | 2196 ft | 183 kts | 311° |
| 2026-05-07 11:07 | 53.46277 | -6.34140 | 2587 ft | 204 kts | 303° |
| 2026-05-07 11:07 | 53.47144 | -6.36177 | 3067 ft | 222 kts | 301° |
| 2026-05-07 11:07 | 53.48050 | -6.38420 | 3606 ft | 241 kts | 300° |
| 2026-05-07 11:08 | 53.49031 | -6.40860 | 4184 ft | 261 kts | 301° |
| 2026-05-07 11:08 | 53.50068 | -6.43411 | 5071 ft | 268 kts | 301° |
| 2026-05-07 11:08 | 53.50973 | -6.46137 | 5972 ft | 268 kts | 281° |
| 2026-05-07 11:08 | 53.50945 | -6.49193 | 6841 ft | 263 kts | 247° |
| 2026-05-07 11:09 | 53.49890 | -6.51628 | 7701 ft | 262 kts | 213° |
| 2026-05-07 11:09 | 53.48177 | -6.52598 | 8543 ft | 266 kts | 180° |
| 2026-05-07 11:09 | 53.46403 | -6.51733 | 9380 ft | 274 kts | 147° |
| 2026-05-07 11:09 | 53.45004 | -6.49502 | 10189 ft | 283 kts | 135° |
| 2026-05-07 11:10 | 53.43636 | -6.46924 | 10523 ft | 307 kts | 133° |
| 2026-05-07 11:10 | 53.42185 | -6.44134 | 10881 ft | 327 kts | 133° |
| 2026-05-07 11:10 | 53.40665 | -6.41232 | 11536 ft | 335 kts | 134° |
| 2026-05-07 11:10 | 53.39109 | -6.38281 | 12272 ft | 341 kts | 131° |
| 2026-05-07 11:11 | 53.37796 | -6.34923 | 12985 ft | 349 kts | 119° |
| 2026-05-07 11:11 | 53.36918 | -6.31101 | 13698 ft | 356 kts | 106° |
| 2026-05-07 11:11 | 53.36449 | -6.27004 | 14407 ft | 361 kts | 102° |
| 2026-05-07 11:11 | 53.36014 | -6.22839 | 15108 ft | 365 kts | 102° |
| 2026-05-07 11:12 | 53.35572 | -6.18642 | 15788 ft | 368 kts | 102° |
| 2026-05-07 11:12 | 53.35119 | -6.14396 | 16439 ft | 372 kts | 102° |
| 2026-05-07 11:12 | 53.34660 | -6.10114 | 17083 ft | 376 kts | 102° |
| 2026-05-07 11:12 | 53.34193 | -6.05790 | 17710 ft | 379 kts | 102° |
| 2026-05-07 11:13 | 53.33720 | -6.01428 | 18323 ft | 383 kts | 102° |
| 2026-05-07 11:13 | 53.33241 | -5.97026 | 18931 ft | 386 kts | 102° |
| 2026-05-07 11:13 | 53.32756 | -5.92593 | 19554 ft | 389 kts | 102° |
| 2026-05-07 11:13 | 53.32268 | -5.88132 | 20162 ft | 392 kts | 102° |
| 2026-05-07 11:14 | 53.31780 | -5.83633 | 20761 ft | 394 kts | 102° |
| 2026-05-07 11:14 | 53.31286 | -5.79103 | 21337 ft | 398 kts | 102° |
| 2026-05-07 11:14 | 53.30787 | -5.74539 | 21908 ft | 400 kts | 102° |
| 2026-05-07 11:14 | 53.30277 | -5.69951 | 22453 ft | 403 kts | 102° |
| 2026-05-07 11:15 | 53.29758 | -5.65333 | 22976 ft | 406 kts | 102° |
| 2026-05-07 11:15 | 53.29233 | -5.60687 | 23482 ft | 408 kts | 102° |
| 2026-05-07 11:15 | 53.28708 | -5.56014 | 23967 ft | 410 kts | 102° |
| 2026-05-07 11:15 | 53.28186 | -5.51308 | 24444 ft | 413 kts | 100° |
| 2026-05-07 11:16 | 53.27921 | -5.46497 | 24728 ft | 421 kts | 94° |
| 2026-05-07 11:16 | 53.27777 | -5.41554 | 24856 ft | 431 kts | 94° |
| 2026-05-07 11:16 | 53.27638 | -5.36501 | 24985 ft | 440 kts | 94° |
| 2026-05-07 11:16 | 53.27496 | -5.31363 | 25201 ft | 445 kts | 94° |
| 2026-05-07 11:17 | 53.27349 | -5.26177 | 25505 ft | 448 kts | 94° |
| 2026-05-07 11:17 | 53.27197 | -5.20969 | 25827 ft | 450 kts | 94° |
| 2026-05-07 11:17 | 53.27039 | -5.15737 | 26143 ft | 452 kts | 94° |
| 2026-05-07 11:17 | 53.26873 | -5.10488 | 26452 ft | 453 kts | 94° |
| 2026-05-07 11:18 | 53.26701 | -5.05221 | 26742 ft | 455 kts | 94° |
| 2026-05-07 11:18 | 53.26521 | -4.99877 | 27025 ft | 457 kts | 94° |
| 2026-05-07 11:18 | 53.26338 | -4.94573 | 27294 ft | 458 kts | 94° |
| 2026-05-07 11:18 | 53.26151 | -4.89241 | 27555 ft | 460 kts | 94° |
| 2026-05-07 11:19 | 53.25964 | -4.83916 | 27798 ft | 461 kts | 94° |
| 2026-05-07 11:19 | 53.25775 | -4.78565 | 28021 ft | 462 kts | 94° |
| 2026-05-07 11:19 | 53.25586 | -4.73197 | 28227 ft | 464 kts | 94° |
| 2026-05-07 11:19 | 53.25398 | -4.67823 | 28482 ft | 463 kts | 94° |
| 2026-05-07 11:20 | 53.25219 | -4.62461 | 28762 ft | 462 kts | 94° |
| 2026-05-07 11:20 | 53.25043 | -4.57106 | 29034 ft | 462 kts | 94° |
| 2026-05-07 11:20 | 53.24864 | -4.51758 | 29314 ft | 461 kts | 94° |
| 2026-05-07 11:20 | 53.24681 | -4.46420 | 29585 ft | 460 kts | 94° |
| 2026-05-07 11:21 | 53.24495 | -4.41088 | 29861 ft | 460 kts | 94° |
| 2026-05-07 11:21 | 53.24307 | -4.35766 | 30130 ft | 459 kts | 94° |
| 2026-05-07 11:21 | 53.24114 | -4.30459 | 30403 ft | 458 kts | 94° |
| 2026-05-07 11:21 | 53.23917 | -4.25153 | 30683 ft | 458 kts | 94° |
| 2026-05-07 11:22 | 53.23718 | -4.19859 | 30956 ft | 457 kts | 94° |
| 2026-05-07 11:22 | 53.23520 | -4.14574 | 31223 ft | 456 kts | 94° |
| 2026-05-07 11:22 | 53.23319 | -4.09297 | 31494 ft | 455 kts | 95° |
| 2026-05-07 11:22 | 53.23115 | -4.04030 | 31768 ft | 454 kts | 95° |
| 2026-05-07 11:23 | 53.22909 | -3.98777 | 32041 ft | 453 kts | 95° |
| 2026-05-07 11:23 | 53.22702 | -3.93534 | 32321 ft | 452 kts | 95° |
| 2026-05-07 11:23 | 53.22490 | -3.88302 | 32599 ft | 451 kts | 95° |
| 2026-05-07 11:23 | 53.22271 | -3.83086 | 32873 ft | 450 kts | 95° |
| 2026-05-07 11:24 | 53.22049 | -3.77879 | 33144 ft | 449 kts | 95° |
| 2026-05-07 11:24 | 53.21827 | -3.72687 | 33408 ft | 448 kts | 95° |
| 2026-05-07 11:24 | 53.21603 | -3.67504 | 33681 ft | 447 kts | 95° |
| 2026-05-07 11:24 | 53.21380 | -3.62333 | 33955 ft | 446 kts | 95° |
| 2026-05-07 11:25 | 53.21156 | -3.57177 | 34227 ft | 445 kts | 95° |
| 2026-05-07 11:25 | 53.20929 | -3.52037 | 34467 ft | 445 kts | 95° |
| 2026-05-07 11:25 | 53.20698 | -3.46883 | 34702 ft | 445 kts | 95° |
| 2026-05-07 11:25 | 53.20469 | -3.41730 | 34910 ft | 446 kts | 95° |
| 2026-05-07 11:26 | 53.20238 | -3.36578 | 35112 ft | 446 kts | 95° |
| 2026-05-07 11:26 | 53.20003 | -3.31414 | 35304 ft | 447 kts | 95° |
| 2026-05-07 11:26 | 53.19647 | -3.26267 | 35485 ft | 447 kts | 102° |
| 2026-05-07 11:26 | 53.18808 | -3.21286 | 35673 ft | 446 kts | 112° |
| 2026-05-07 11:27 | 53.17492 | -3.16609 | 35851 ft | 446 kts | 121° |
| 2026-05-07 11:27 | 53.15745 | -3.12359 | 36031 ft | 445 kts | 130° |
| 2026-05-07 11:27 | 53.13702 | -3.08482 | 36198 ft | 446 kts | 132° |
| 2026-05-07 11:27 | 53.11639 | -3.04623 | 36360 ft | 446 kts | 132° |
| 2026-05-07 11:28 | 53.09574 | -3.00762 | 36515 ft | 447 kts | 132° |
| 2026-05-07 11:28 | 53.07505 | -2.96900 | 36679 ft | 447 kts | 132° |
| 2026-05-07 11:28 | 53.05439 | -2.93052 | 36897 ft | 445 kts | 132° |
| 2026-05-07 11:28 | 53.03385 | -2.89227 | 37029 ft | 443 kts | 132° |
| 2026-05-07 11:29 | 52.99290 | -2.81615 | 37056 ft | 441 kts | 132° |
| 2026-05-07 11:29 | 52.95196 | -2.74034 | 37052 ft | 441 kts | 133° |
| 2026-05-07 11:30 | 52.91096 | -2.66475 | 37056 ft | 441 kts | 132° |
| 2026-05-07 11:30 | 52.87000 | -2.58921 | 37054 ft | 441 kts | 132° |
| 2026-05-07 11:31 | 52.82887 | -2.51378 | 37056 ft | 441 kts | 133° |
| 2026-05-07 11:31 | 52.78768 | -2.43861 | 37054 ft | 442 kts | 133° |
| 2026-05-07 11:32 | 52.72573 | -2.32583 | 37061 ft | 442 kts | 133° |
| 2026-05-07 11:33 | 52.68443 | -2.25082 | 37065 ft | 442 kts | 133° |
| 2026-05-07 11:33 | 52.64313 | -2.17602 | 37068 ft | 441 kts | 133° |
| 2026-05-07 11:34 | 52.60178 | -2.10128 | 37070 ft | 441 kts | 133° |
| 2026-05-07 11:34 | 52.56042 | -2.02679 | 37073 ft | 441 kts | 133° |
| 2026-05-07 11:35 | 52.51893 | -1.95253 | 37074 ft | 441 kts | 133° |
| 2026-05-07 11:35 | 52.47735 | -1.87835 | 37075 ft | 441 kts | 133° |
| 2026-05-07 11:36 | 52.43581 | -1.80429 | 37077 ft | 441 kts | 133° |
| 2026-05-07 11:36 | 52.39423 | -1.73033 | 37075 ft | 441 kts | 133° |
| 2026-05-07 11:37 | 52.35251 | -1.65658 | 37076 ft | 441 kts | 133° |
| 2026-05-07 11:37 | 52.31033 | -1.58359 | 37077 ft | 442 kts | 134° |
| 2026-05-07 11:38 | 52.26770 | -1.51129 | 37081 ft | 442 kts | 134° |
| 2026-05-07 11:38 | 52.22475 | -1.43854 | 37095 ft | 442 kts | 134° |
| 2026-05-07 11:39 | 52.18211 | -1.36609 | 37098 ft | 443 kts | 134° |
| 2026-05-07 11:39 | 52.13974 | -1.29433 | 37084 ft | 442 kts | 134° |
| 2026-05-07 11:40 | 52.09702 | -1.22227 | 37086 ft | 442 kts | 134° |
| 2026-05-07 11:40 | 52.05392 | -1.14987 | 37093 ft | 443 kts | 134° |
| 2026-05-07 11:41 | 52.01835 | -1.09028 | 37092 ft | 442 kts | 134° |
| 2026-05-07 11:41 | 51.97546 | -1.01876 | 37084 ft | 442 kts | 135° |
| 2026-05-07 11:42 | 51.93252 | -0.94721 | 37083 ft | 443 kts | 134° |
| 2026-05-07 11:42 | 51.88951 | -0.87550 | 37082 ft | 444 kts | 135° |
| 2026-05-07 11:43 | 51.84649 | -0.80397 | 37084 ft | 444 kts | 135° |
| 2026-05-07 11:43 | 51.80327 | -0.73260 | 37085 ft | 444 kts | 135° |
| 2026-05-07 11:44 | 51.75997 | -0.66131 | 37085 ft | 444 kts | 135° |
| 2026-05-07 11:44 | 51.71673 | -0.59017 | 37091 ft | 444 kts | 135° |
| 2026-05-07 11:45 | 51.67334 | -0.51911 | 37084 ft | 444 kts | 135° |
| 2026-05-07 11:45 | 51.62991 | -0.44827 | 37084 ft | 445 kts | 135° |
| 2026-05-07 11:46 | 51.58643 | -0.37740 | 37084 ft | 445 kts | 135° |
| 2026-05-07 11:46 | 51.54290 | -0.30671 | 37083 ft | 445 kts | 135° |
| 2026-05-07 11:47 | 51.49933 | -0.23619 | 37082 ft | 445 kts | 135° |
| 2026-05-07 11:47 | 51.45566 | -0.16576 | 37084 ft | 445 kts | 136° |
| 2026-05-07 11:48 | 51.41197 | -0.09542 | 37084 ft | 445 kts | 135° |
| 2026-05-07 11:48 | 51.36832 | -0.02508 | 37082 ft | 445 kts | 133° |
| 2026-05-07 11:49 | 51.33390 | 0.05706 | 37080 ft | 447 kts | 114° |
| 2026-05-07 11:49 | 51.31671 | 0.15230 | 37075 ft | 448 kts | 101° |
| 2026-05-07 11:50 | 51.30481 | 0.25014 | 37075 ft | 449 kts | 102° |
| 2026-05-07 11:50 | 51.29263 | 0.34802 | 37075 ft | 449 kts | 102° |
| 2026-05-07 11:51 | 51.28038 | 0.44600 | 37077 ft | 450 kts | 102° |
| 2026-05-07 11:51 | 51.26816 | 0.54408 | 37078 ft | 450 kts | 102° |
| 2026-05-07 11:52 | 51.25580 | 0.64219 | 37083 ft | 451 kts | 102° |
| 2026-05-07 11:52 | 51.24316 | 0.74095 | 37087 ft | 451 kts | 102° |
| 2026-05-07 11:53 | 51.23058 | 0.83908 | 37088 ft | 451 kts | 102° |
| 2026-05-07 11:53 | 51.21800 | 0.93721 | 37095 ft | 452 kts | 102° |
| 2026-05-07 11:54 | 51.20528 | 1.03531 | 37087 ft | 452 kts | 102° |
| 2026-05-07 11:54 | 51.19251 | 1.13331 | 37086 ft | 452 kts | 102° |
| 2026-05-07 11:55 | 51.17954 | 1.23145 | 37084 ft | 452 kts | 102° |
| 2026-05-07 11:55 | 51.16801 | 1.32983 | 37080 ft | 452 kts | 95° |
| 2026-05-07 11:56 | 51.17184 | 1.42933 | 37078 ft | 452 kts | 78° |
| 2026-05-07 11:56 | 51.18505 | 1.52737 | 37074 ft | 453 kts | 78° |
| 2026-05-07 11:57 | 51.19812 | 1.62568 | 37078 ft | 454 kts | 78° |
| 2026-05-07 11:57 | 51.21095 | 1.72420 | 37079 ft | 454 kts | 78° |
| 2026-05-07 11:58 | 51.22369 | 1.82283 | 37085 ft | 454 kts | 78° |
| 2026-05-07 11:58 | 51.23638 | 1.92153 | 37087 ft | 454 kts | 78° |
| 2026-05-07 11:59 | 51.24488 | 2.02111 | 37097 ft | 453 kts | 91° |
| 2026-05-07 11:59 | 51.24072 | 2.12140 | 37086 ft | 453 kts | 95° |
| 2026-05-07 12:00 | 51.23587 | 2.22167 | 37088 ft | 454 kts | 95° |
| 2026-05-07 12:00 | 51.23069 | 2.32198 | 37097 ft | 454 kts | 98° |
| 2026-05-07 12:01 | 51.21263 | 2.41778 | 37079 ft | 451 kts | 117° |
| 2026-05-07 12:01 | 51.19684 | 2.46078 | 36849 ft | 450 kts | 126° |
| 2026-05-07 12:01 | 51.17718 | 2.49947 | 36596 ft | 449 kts | 131° |
| 2026-05-07 12:01 | 51.15673 | 2.53710 | 36350 ft | 449 kts | 131° |
| 2026-05-07 12:02 | 51.13630 | 2.57481 | 36097 ft | 451 kts | 131° |
| 2026-05-07 12:02 | 51.11662 | 2.61387 | 35839 ft | 455 kts | 125° |
| 2026-05-07 12:02 | 51.10068 | 2.65747 | 35596 ft | 457 kts | 115° |
| 2026-05-07 12:02 | 51.08926 | 2.70469 | 35346 ft | 459 kts | 106° |
| 2026-05-07 12:03 | 51.08238 | 2.75420 | 35099 ft | 459 kts | 101° |
| 2026-05-07 12:03 | 51.07649 | 2.80409 | 34849 ft | 459 kts | 101° |
| 2026-05-07 12:03 | 51.07055 | 2.85394 | 34602 ft | 459 kts | 101° |
| 2026-05-07 12:03 | 51.06455 | 2.90381 | 34350 ft | 459 kts | 101° |
| 2026-05-07 12:04 | 51.05851 | 2.95350 | 34104 ft | 458 kts | 101° |
| 2026-05-07 12:04 | 51.05242 | 3.00322 | 33854 ft | 458 kts | 101° |
| 2026-05-07 12:04 | 51.04633 | 3.05292 | 33606 ft | 458 kts | 101° |
| 2026-05-07 12:04 | 51.04022 | 3.10263 | 33353 ft | 459 kts | 101° |
| 2026-05-07 12:05 | 51.03406 | 3.15234 | 33102 ft | 459 kts | 101° |
| 2026-05-07 12:05 | 51.02789 | 3.20207 | 32666 ft | 459 kts | 101° |
| 2026-05-07 12:05 | 51.02170 | 3.25187 | 31464 ft | 459 kts | 101° |
| 2026-05-07 12:05 | 51.01556 | 3.30119 | 30462 ft | 451 kts | 101° |
| 2026-05-07 12:06 | 51.00951 | 3.34968 | 29356 ft | 446 kts | 101° |
| 2026-05-07 12:06 | 51.00346 | 3.39781 | 28185 ft | 447 kts | 101° |
| 2026-05-07 12:06 | 50.99728 | 3.44662 | 26992 ft | 453 kts | 101° |
| 2026-05-07 12:06 | 50.99104 | 3.49578 | 25784 ft | 458 kts | 102° |
| 2026-05-07 12:07 | 50.98472 | 3.54545 | 24555 ft | 461 kts | 102° |
| 2026-05-07 12:07 | 50.97835 | 3.59547 | 23331 ft | 463 kts | 102° |
| 2026-05-07 12:07 | 50.97204 | 3.64501 | 22153 ft | 454 kts | 102° |
| 2026-05-07 12:07 | 50.96580 | 3.69390 | 21274 ft | 451 kts | 102° |
| 2026-05-07 12:08 | 50.95958 | 3.74246 | 20378 ft | 448 kts | 102° |
| 2026-05-07 12:08 | 50.95338 | 3.79072 | 19497 ft | 445 kts | 102° |
| 2026-05-07 12:08 | 50.94716 | 3.83865 | 18631 ft | 442 kts | 102° |
| 2026-05-07 12:08 | 50.94093 | 3.88620 | 17796 ft | 439 kts | 102° |
| 2026-05-07 12:09 | 50.93515 | 3.93347 | 16956 ft | 435 kts | 98° |
| 2026-05-07 12:09 | 50.93362 | 3.98104 | 16162 ft | 432 kts | 88° |
| 2026-05-07 12:09 | 50.93715 | 4.02803 | 15399 ft | 427 kts | 78° |
| 2026-05-07 12:09 | 50.94543 | 4.07305 | 14660 ft | 423 kts | 69° |
| 2026-05-07 12:10 | 50.95565 | 4.11718 | 13935 ft | 418 kts | 69° |
| 2026-05-07 12:10 | 50.96552 | 4.16013 | 13231 ft | 413 kts | 70° |
| 2026-05-07 12:10 | 50.97526 | 4.20275 | 12545 ft | 408 kts | 70° |
| 2026-05-07 12:10 | 50.98469 | 4.24438 | 11850 ft | 403 kts | 70° |
| 2026-05-07 12:11 | 50.99407 | 4.28592 | 11337 ft | 393 kts | 70° |
| 2026-05-07 12:11 | 51.00306 | 4.32572 | 11214 ft | 373 kts | 70° |
| 2026-05-07 12:11 | 51.01161 | 4.36357 | 11081 ft | 355 kts | 70° |
| 2026-05-07 12:11 | 51.01985 | 4.40005 | 10955 ft | 339 kts | 70° |
| 2026-05-07 12:12 | 51.02763 | 4.43453 | 10825 ft | 325 kts | 70° |
| 2026-05-07 12:12 | 51.03507 | 4.46760 | 10703 ft | 311 kts | 70° |
| 2026-05-07 12:12 | 51.04222 | 4.49942 | 10566 ft | 300 kts | 70° |
| 2026-05-07 12:12 | 51.04914 | 4.53018 | 10321 ft | 293 kts | 70° |
| 2026-05-07 12:13 | 51.05585 | 4.56010 | 10096 ft | 289 kts | 70° |
| 2026-05-07 12:13 | 51.06266 | 4.59045 | 9924 ft | 288 kts | 70° |
| 2026-05-07 12:13 | 51.06936 | 4.62042 | 9804 ft | 287 kts | 70° |
| 2026-05-07 12:13 | 51.07605 | 4.65036 | 9509 ft | 285 kts | 70° |
| 2026-05-07 12:14 | 51.08248 | 4.67906 | 9225 ft | 269 kts | 70° |
| 2026-05-07 12:14 | 51.08865 | 4.70674 | 8733 ft | 264 kts | 70° |
| 2026-05-07 12:14 | 51.09471 | 4.73407 | 8460 ft | 259 kts | 70° |
| 2026-05-07 12:14 | 51.10067 | 4.76137 | 8028 ft | 261 kts | 73° |
| 2026-05-07 12:15 | 51.10248 | 4.78973 | 7702 ft | 259 kts | 96° |
| 2026-05-07 12:15 | 51.09731 | 4.81688 | 7226 ft | 257 kts | 118° |
| 2026-05-07 12:15 | 51.08612 | 4.83867 | 6595 ft | 255 kts | 141° |
| 2026-05-07 12:15 | 51.07063 | 4.85205 | 5962 ft | 254 kts | 163° |
| 2026-05-07 12:16 | 51.05329 | 4.85694 | 5305 ft | 254 kts | 172° |
| 2026-05-07 12:16 | 51.03583 | 4.86004 | 4686 ft | 252 kts | 180° |
| 2026-05-07 12:16 | 51.01870 | 4.85634 | 4227 ft | 244 kts | 197° |
| 2026-05-07 12:16 | 51.00377 | 4.84591 | 4038 ft | 226 kts | 213° |
| 2026-05-07 12:17 | 50.99163 | 4.83116 | 3926 ft | 218 kts | 220° |
| 2026-05-07 12:17 | 50.98003 | 4.81583 | 3836 ft | 215 kts | 220° |
| 2026-05-07 12:17 | 50.96863 | 4.80047 | 3737 ft | 216 kts | 225° |
| 2026-05-07 12:17 | 50.95942 | 4.78174 | 3613 ft | 214 kts | 242° |
| 2026-05-07 12:18 | 50.95513 | 4.76762 | 3388 ft | 216 kts | 249° |
| 2026-05-07 12:18 | 50.94978 | 4.74539 | 3077 ft | 215 kts | 251° |
| 2026-05-07 12:18 | 50.94480 | 4.72345 | 2814 ft | 207 kts | 251° |
| 2026-05-07 12:18 | 50.94005 | 4.70259 | 2521 ft | 195 kts | 251° |
| 2026-05-07 12:19 | 50.93554 | 4.68286 | 2256 ft | 188 kts | 251° |
| 2026-05-07 12:19 | 50.93121 | 4.66395 | 2024 ft | 177 kts | 252° |
| 2026-05-07 12:19 | 50.92708 | 4.64591 | 1790 ft | 171 kts | 251° |
| 2026-05-07 12:19 | 50.92314 | 4.62872 | 1572 ft | 161 kts | 252° |
| 2026-05-07 12:20 | 50.91936 | 4.61224 | 1371 ft | 155 kts | 250° |
| 2026-05-07 12:20 | 50.91580 | 4.59673 | 1161 ft | 146 kts | 252° |
| 2026-05-07 12:20 | 50.91239 | 4.58189 | 966 ft | 141 kts | 250° |
| 2026-05-07 12:20 | 50.90900 | 4.56733 | 751 ft | 141 kts | 250° |
| 2026-05-07 12:21 | 50.90575 | 4.55290 | 589 ft | 138 kts | 251° |
| 2026-05-07 12:21 | 50.90248 | 4.53871 | 430 ft | 138 kts | 249° |
| 2026-05-07 12:21 | 50.89919 | 4.52456 | 251 ft | 136 kts | 251° |
| 2026-05-07 12:21 | 50.89613 | 4.51112 | 193 ft | 116 kts | 250° |
| 2026-05-07 12:22 | 50.89395 | 4.50159 | 198 ft | 68 kts | 250° |
| 2026-05-07 12:22 | 50.89282 | 4.49675 | 197 ft | 37 kts | 250° |
| 2026-05-07 12:22 | 50.89230 | 4.49415 | 183 ft | 23 kts | 263° |
| 2026-05-07 12:22 | 50.89263 | 4.49243 | 184 ft | 12 kts | 307° |
| 2026-05-07 12:23 | 50.89294 | 4.49184 | 192 ft | 0 kts | 309° |
| 2026-05-07 12:23 | 50.89297 | 4.49177 | 188 ft | 4 kts | 309° |
| 2026-05-07 12:23 | 50.89325 | 4.49127 | 188 ft | 0 kts | 311° |
| 2026-05-07 12:23 | 50.89359 | 4.49068 | 197 ft | 19 kts | 312° |
| 2026-05-07 12:24 | 50.89443 | 4.49017 | 184 ft | 10 kts | 8° |
| 2026-05-07 12:24 | 50.89539 | 4.49055 | 188 ft | 20 kts | 15° |
| 2026-05-07 12:24 | 50.89676 | 4.49159 | 185 ft | 26 kts | 19° |
| 2026-05-07 12:24 | 50.89826 | 4.49220 | 193 ft | 22 kts | 14° |
| 2026-05-07 12:25 | 50.89945 | 4.49257 | 191 ft | 17 kts | 355° |
| 2026-05-07 12:25 | 50.90030 | 4.49224 | 189 ft | 4 kts | 342° |
| 2026-05-07 12:25 | 50.90072 | 4.49196 | 185 ft | 6 kts | 335° |
| 2026-05-07 12:25 | 50.90079 | 4.49191 | 196 ft | 0 kts | 335° |